createdAt,value
2022-09-17T00:01:08.374Z,1.50
2022-09-17T00:03:35.726Z,2.13
2022-09-17T00:06:08.628Z,1.70
2022-09-17T00:08:36.965Z,1.60
2022-09-17T00:11:14.072Z,1.63
2022-09-17T00:13:42.503Z,1.77
2022-09-17T00:16:09.885Z,1.77
2022-09-17T00:18:40.612Z,1.83
2022-09-17T00:21:15.005Z,2.05
2022-09-17T00:23:41.562Z,1.83
2022-09-17T00:26:08.184Z,2.05
2022-09-17T00:28:34.806Z,1.70
2022-09-17T00:31:01.501Z,1.90
2022-09-17T00:33:28.105Z,1.70
2022-09-17T00:36:00.244Z,2.00
2022-09-17T00:38:27.632Z,2.72
2022-09-17T00:40:54.542Z,1.70
2022-09-17T00:43:46.513Z,1.75
2022-09-17T00:46:38.537Z,1.90
2022-09-17T00:49:11.073Z,1.85
2022-09-17T00:51:41.962Z,2.42
2022-09-17T00:54:10.462Z,1.80
2022-09-17T00:56:40.146Z,2.03
2022-09-17T00:59:08.494Z,2.42
2022-09-17T01:01:35.949Z,2.20
2022-09-17T01:04:03.499Z,2.50
2022-09-17T01:06:46.604Z,2.05
2022-09-17T01:09:49.866Z,2.63
2022-09-17T01:12:40.214Z,2.33
2022-09-17T01:15:20.721Z,2.63
2022-09-17T01:18:14.088Z,2.90
2022-09-17T01:21:11.432Z,2.30
2022-09-17T01:24:17.269Z,2.25
2022-09-17T01:26:59.223Z,2.45
2022-09-17T01:29:53.677Z,2.65
2022-09-17T01:32:42.616Z,2.85
2022-09-17T01:35:13.061Z,2.17
2022-09-17T01:38:05.105Z,2.85
2022-09-17T01:40:32.366Z,2.65
2022-09-17T01:43:17.084Z,3.25
2022-09-17T01:46:01.045Z,2.47
2022-09-17T01:48:35.829Z,2.85
2022-09-17T01:51:08.762Z,2.65
2022-09-17T01:53:43.589Z,3.25
2022-09-17T01:56:14.572Z,3.60
2022-09-17T01:58:51.408Z,3.33
2022-09-17T02:01:22.071Z,3.15
2022-09-17T02:03:58.388Z,3.20
2022-09-17T02:06:30.879Z,3.00
2022-09-17T02:09:15.519Z,3.10
2022-09-17T02:11:44.301Z,2.88
2022-09-17T02:14:15.478Z,3.05
2022-09-17T02:16:50.022Z,3.00
2022-09-17T02:19:30.481Z,2.45
2022-09-17T02:22:03.065Z,2.28
2022-09-17T02:24:51.252Z,2.78
2022-09-17T02:27:39.051Z,2.45
2022-09-17T02:30:06.744Z,2.30
2022-09-17T02:32:33.486Z,2.72
2022-09-17T02:35:00.228Z,2.95
2022-09-17T02:37:27.682Z,2.30
2022-09-17T02:39:55.132Z,2.35
2022-09-17T02:42:40.265Z,2.35
2022-09-17T02:45:34.861Z,2.63
2022-09-17T02:48:49.365Z,2.85
2022-09-17T02:51:41.015Z,2.78
2022-09-17T02:54:23.966Z,2.75
2022-09-17T02:57:09.429Z,2.40
2022-09-17T02:59:44.640Z,2.92
2022-09-17T03:02:47.261Z,2.78
2022-09-17T03:05:17.168Z,2.33
2022-09-17T03:07:43.961Z,2.80
2022-09-17T03:10:10.813Z,2.40
2022-09-17T03:12:38.495Z,3.13
2022-09-17T03:15:05.860Z,3.00
2022-09-17T03:17:32.751Z,3.30
2022-09-17T03:19:59.354Z,2.30
2022-09-17T03:22:26.112Z,2.55
2022-09-17T03:24:52.903Z,3.17
2022-09-17T03:27:19.477Z,3.17
2022-09-17T03:29:46.056Z,2.97
2022-09-17T03:32:12.741Z,3.72
2022-09-17T03:34:39.370Z,3.10
2022-09-17T03:37:05.968Z,3.28
2022-09-17T03:39:32.565Z,3.03
2022-09-17T03:41:59.213Z,2.63
2022-09-17T03:44:25.858Z,3.25
2022-09-17T03:46:52.517Z,3.30
2022-09-17T03:49:19.131Z,3.20
2022-09-17T03:51:45.867Z,2.70
2022-09-17T03:54:12.554Z,3.10
2022-09-17T03:56:39.149Z,3.50
2022-09-17T03:59:05.786Z,4.00
2022-09-17T04:01:32.649Z,4.00
2022-09-17T04:03:59.419Z,3.35
2022-09-17T04:06:26.132Z,3.83
2022-09-17T04:08:53.066Z,3.47
2022-09-17T04:11:19.673Z,3.30
2022-09-17T04:13:46.371Z,3.47
2022-09-17T04:16:13.069Z,3.65
2022-09-17T04:18:39.755Z,3.30
2022-09-17T04:21:06.652Z,3.05
2022-09-17T04:23:33.324Z,3.40
2022-09-17T04:26:00.121Z,2.78
2022-09-17T04:28:26.977Z,3.33
2022-09-17T04:30:53.574Z,2.63
2022-09-17T04:33:20.216Z,3.28
2022-09-17T04:35:46.902Z,3.25
2022-09-17T04:38:18.585Z,2.88
2022-09-17T04:40:46.483Z,3.28
2022-09-17T04:43:13.756Z,2.65
2022-09-17T04:45:40.379Z,3.28
2022-09-17T04:48:07.137Z,3.42
2022-09-17T04:50:33.725Z,2.47
2022-09-17T04:53:00.304Z,3.15
2022-09-17T04:55:27.591Z,2.92
2022-09-17T04:57:54.659Z,3.38
2022-09-17T05:00:22.986Z,3.30
2022-09-17T05:02:53.398Z,2.75
2022-09-17T05:05:20.547Z,2.83
2022-09-17T05:07:47.359Z,2.70
2022-09-17T05:10:15.462Z,2.58
2022-09-17T05:12:47.043Z,2.92
2022-09-17T05:15:13.810Z,2.85
2022-09-17T05:17:40.436Z,3.13
2022-09-17T05:20:07.378Z,4.80
2022-09-17T05:22:33.960Z,3.65
2022-09-17T05:25:00.623Z,3.28
2022-09-17T05:27:27.219Z,3.08
2022-09-17T05:29:53.792Z,3.25
2022-09-17T05:32:20.429Z,3.28
2022-09-17T05:34:46.964Z,2.78
2022-09-17T05:37:14.070Z,2.63
2022-09-17T05:39:40.729Z,2.85
2022-09-17T05:42:07.441Z,2.58
2022-09-17T05:44:34.017Z,3.10
2022-09-17T05:47:00.761Z,3.17
2022-09-17T05:49:27.567Z,3.40
2022-09-17T05:51:54.232Z,3.10
2022-09-17T05:54:20.877Z,3.42
2022-09-17T05:56:47.513Z,2.78
2022-09-17T05:59:15.805Z,3.20
2022-09-17T06:01:42.678Z,3.08
2022-09-17T06:04:09.635Z,3.17
2022-09-17T06:06:37.781Z,2.85
2022-09-17T06:09:05.126Z,2.47
2022-09-17T06:11:32.420Z,2.60
2022-09-17T06:13:59.070Z,3.40
2022-09-17T06:16:26.588Z,3.05
2022-09-17T06:18:53.239Z,2.45
2022-09-17T06:21:21.873Z,2.50
2022-09-17T06:23:51.779Z,2.50
2022-09-17T06:26:18.608Z,2.88
2022-09-17T06:28:45.386Z,5.03
2022-09-17T06:31:13.620Z,3.00
2022-09-17T06:33:40.534Z,2.47
2022-09-17T06:36:14.100Z,3.15
2022-09-17T06:38:41.565Z,3.13
2022-09-17T06:41:08.203Z,3.13
2022-09-17T06:43:34.942Z,2.75
2022-09-17T06:46:05.561Z,3.42
2022-09-17T06:48:34.816Z,2.90
2022-09-17T06:51:03.946Z,3.15
2022-09-17T06:53:31.269Z,2.30
2022-09-17T06:56:03.661Z,3.80
2022-09-17T06:58:33.924Z,2.85
2022-09-17T07:01:05.058Z,3.15
2022-09-17T07:03:32.030Z,2.78
2022-09-17T07:05:58.836Z,3.17
2022-09-17T07:08:26.147Z,2.92
2022-09-17T07:10:56.680Z,3.42
2022-09-17T07:13:24.017Z,3.67
2022-09-17T07:15:58.774Z,3.50
2022-09-17T07:18:25.955Z,3.00
2022-09-17T07:20:55.013Z,3.00
2022-09-17T07:23:26.753Z,3.20
2022-09-17T07:25:55.361Z,3.45
2022-09-17T07:28:22.751Z,3.35
2022-09-17T07:30:50.942Z,3.80
2022-09-17T07:33:23.177Z,3.83
2022-09-17T07:35:54.789Z,3.67
2022-09-17T07:38:22.668Z,6.47
2022-09-17T07:41:13.004Z,4.90
2022-09-17T07:43:40.591Z,4.00
2022-09-17T07:46:08.343Z,3.95
2022-09-17T07:48:35.094Z,5.10
2022-09-17T07:51:01.856Z,4.75
2022-09-17T07:53:28.510Z,4.13
2022-09-17T07:55:56.980Z,4.70
2022-09-17T07:58:28.312Z,4.85
2022-09-17T08:01:04.309Z,4.78
2022-09-17T08:03:30.985Z,3.83
2022-09-17T08:06:08.906Z,3.65
2022-09-17T08:08:36.656Z,3.97
2022-09-17T08:11:09.224Z,3.85
2022-09-17T08:13:36.099Z,4.43
2022-09-17T08:16:05.886Z,3.55
2022-09-17T08:18:33.578Z,4.88
2022-09-17T08:21:01.211Z,3.80
2022-09-17T08:23:29.269Z,3.95
2022-09-17T08:25:58.078Z,4.50
2022-09-17T08:28:27.545Z,3.83
2022-09-17T08:30:54.880Z,4.30
2022-09-17T08:33:21.649Z,4.00
2022-09-17T08:35:55.480Z,4.07
2022-09-17T08:38:22.231Z,3.55
2022-09-17T08:41:17.200Z,3.58
2022-09-17T08:43:50.834Z,3.92
2022-09-17T08:46:17.688Z,4.30
2022-09-17T08:49:14.933Z,3.78
2022-09-17T08:52:04.085Z,4.13
2022-09-17T08:54:42.553Z,3.88
2022-09-17T08:57:11.906Z,3.92
2022-09-17T09:00:09.765Z,3.85
2022-09-17T09:02:39.610Z,3.20
2022-09-17T09:05:15.634Z,3.45
2022-09-17T09:07:51.705Z,2.63
2022-09-17T09:10:28.997Z,3.13
2022-09-17T09:12:59.449Z,2.88
2022-09-17T09:15:38.183Z,3.15
2022-09-17T09:18:22.933Z,2.88
2022-09-17T09:21:08.816Z,3.70
2022-09-17T09:23:54.472Z,3.05
2022-09-17T09:26:44.830Z,2.90
2022-09-17T09:29:20.247Z,3.05
2022-09-17T09:32:20.489Z,2.72
2022-09-17T09:34:49.037Z,2.97
2022-09-17T09:37:36.968Z,2.72
2022-09-17T09:40:28.384Z,3.25
2022-09-17T09:42:59.973Z,2.85
2022-09-17T09:45:40.553Z,3.05
2022-09-17T09:48:20.697Z,2.67
2022-09-17T09:51:23.873Z,2.50
2022-09-17T09:54:02.854Z,2.83
2022-09-17T09:56:32.447Z,2.58
2022-09-17T09:58:59.113Z,2.50
2022-09-17T10:01:28.695Z,2.58
2022-09-17T10:03:58.188Z,2.53
2022-09-17T10:06:29.329Z,2.60
2022-09-17T10:08:56.004Z,2.63
2022-09-17T10:11:30.354Z,2.67
2022-09-17T10:14:23.289Z,2.53
2022-09-17T10:16:50.404Z,2.80
2022-09-17T10:19:25.723Z,3.13
2022-09-17T10:21:53.135Z,3.42
2022-09-17T10:24:28.799Z,3.08
2022-09-17T10:27:05.719Z,2.83
2022-09-17T10:29:35.634Z,3.58
2022-09-17T10:32:06.808Z,2.60
2022-09-17T10:34:34.266Z,2.80
2022-09-17T10:37:00.861Z,2.28
2022-09-17T10:39:27.617Z,2.85
2022-09-17T10:41:58.870Z,3.20
2022-09-17T10:44:28.322Z,2.50
2022-09-17T10:47:01.496Z,2.85
2022-09-17T10:49:53.760Z,2.40
2022-09-17T10:52:23.952Z,2.88
2022-09-17T10:55:16.821Z,3.33
2022-09-17T10:58:09.540Z,2.65
2022-09-17T11:00:46.530Z,2.50
2022-09-17T11:03:47.529Z,2.50
2022-09-17T11:06:34.756Z,2.78
2022-09-17T11:09:25.673Z,2.15
2022-09-17T11:12:19.847Z,2.90
2022-09-17T11:15:05.603Z,2.40
2022-09-17T11:17:57.336Z,2.50
2022-09-17T11:21:09.326Z,2.50
2022-09-17T11:23:59.708Z,2.03
2022-09-17T11:26:50.982Z,2.42
2022-09-17T11:29:51.139Z,2.55
2022-09-17T11:32:40.813Z,1.92
2022-09-17T11:35:31.048Z,2.70
2022-09-17T11:38:23.104Z,2.35
2022-09-17T11:41:01.413Z,2.63
2022-09-17T11:43:32.390Z,2.55
2022-09-17T11:46:11.189Z,2.40
2022-09-17T11:48:51.381Z,2.05
2022-09-17T11:51:28.139Z,2.97
2022-09-17T11:54:02.709Z,2.47
2022-09-17T11:56:52.298Z,2.42
2022-09-17T11:59:23.947Z,2.67
2022-09-17T12:02:00.383Z,2.10
2022-09-17T12:04:42.641Z,2.50
2022-09-17T12:07:45.731Z,3.03
2022-09-17T12:10:24.265Z,2.13
2022-09-17T12:12:58.049Z,2.03
2022-09-17T12:15:28.786Z,2.88
2022-09-17T12:18:32.370Z,2.30
2022-09-17T12:21:01.890Z,1.80
2022-09-17T12:23:38.707Z,2.13
2022-09-17T12:26:46.239Z,1.85
2022-09-17T12:29:40.105Z,2.20
2022-09-17T12:32:31.214Z,1.90
2022-09-17T12:35:13.461Z,1.40
2022-09-17T12:38:07.320Z,1.65
2022-09-17T12:41:00.898Z,1.70
2022-09-17T12:43:28.802Z,2.40
2022-09-17T12:46:13.450Z,1.40
2022-09-17T12:49:07.838Z,1.63
2022-09-17T12:51:59.557Z,2.17
2022-09-17T12:54:45.294Z,1.75
2022-09-17T12:57:53.529Z,1.50
2022-09-17T13:00:20.398Z,1.70
2022-09-17T13:03:13.195Z,1.60
2022-09-17T13:06:00.788Z,1.52
2022-09-17T13:08:49.031Z,1.88
2022-09-17T13:11:46.351Z,1.58
2022-09-17T13:14:30.096Z,1.75
2022-09-17T13:17:11.926Z,7.28
2022-09-17T13:19:41.533Z,1.55
2022-09-17T13:22:18.354Z,1.50
2022-09-17T13:24:47.750Z,1.55
2022-09-17T13:27:28.220Z,1.45
2022-09-17T13:29:54.779Z,1.15
2022-09-17T13:32:48.961Z,1.48
2022-09-17T13:35:15.510Z,1.40
2022-09-17T13:37:53.824Z,1.88
2022-09-17T13:40:23.739Z,1.63
2022-09-17T13:42:57.165Z,1.75
2022-09-17T13:45:25.805Z,1.40
2022-09-17T13:47:54.417Z,2.28
2022-09-17T13:50:34.074Z,2.92
2022-09-17T13:53:15.547Z,1.73
2022-09-17T13:55:48.174Z,1.85
2022-09-17T13:58:20.830Z,1.40
2022-09-17T14:00:56.396Z,1.38
2022-09-17T14:03:30.742Z,1.60
2022-09-17T14:06:18.792Z,1.60
2022-09-17T14:08:45.588Z,1.10
2022-09-17T14:11:26.392Z,1.42
2022-09-17T14:13:55.263Z,1.40
2022-09-17T14:16:35.908Z,1.20
2022-09-17T14:19:24.138Z,1.38
2022-09-17T14:22:05.990Z,1.17
2022-09-17T14:24:44.932Z,1.27
2022-09-17T14:27:58.097Z,1.10
2022-09-17T14:30:31.208Z,1.40
2022-09-17T14:33:00.889Z,1.70
2022-09-17T14:35:36.607Z,2.00
2022-09-17T14:38:12.703Z,1.40
2022-09-17T14:40:47.618Z,1.63
2022-09-17T14:43:26.271Z,1.15
2022-09-17T14:45:53.525Z,1.33
2022-09-17T14:48:32.143Z,1.85
2022-09-17T14:51:17.655Z,1.48
2022-09-17T14:54:07.131Z,1.65
2022-09-17T14:56:40.393Z,1.30
2022-09-17T14:59:21.037Z,1.90
2022-09-17T15:01:48.763Z,1.52
2022-09-17T15:04:15.316Z,2.22
2022-09-17T15:06:43.537Z,1.42
2022-09-17T15:09:18.769Z,1.60
2022-09-17T15:11:48.063Z,2.15
2022-09-17T15:14:22.175Z,1.70
2022-09-17T15:19:28.514Z,2.38
2022-09-17T15:21:57.973Z,1.60
2022-09-17T15:24:39.524Z,1.50
2022-09-17T15:27:12.730Z,1.52
2022-09-17T15:29:46.831Z,1.77
2022-09-17T15:34:41.681Z,1.63
2022-09-17T15:37:25.516Z,1.42
2022-09-17T15:39:55.490Z,1.52
2022-09-17T15:42:31.685Z,1.55
2022-09-17T15:45:21.583Z,1.48
2022-09-17T15:47:56.685Z,1.60
2022-09-17T15:50:28.372Z,1.05
2022-09-17T15:53:12.381Z,1.17
2022-09-17T15:55:45.834Z,0.88
2022-09-17T15:58:33.026Z,0.85
2022-09-17T16:01:14.988Z,0.65
2022-09-17T16:03:44.462Z,0.60
2022-09-17T16:06:20.792Z,0.63
2022-09-17T16:08:51.897Z,0.60
2022-09-17T16:11:20.186Z,0.70
2022-09-17T16:13:47.569Z,0.75
2022-09-17T16:16:34.139Z,0.73
2022-09-17T16:19:01.530Z,0.80
2022-09-17T16:21:28.982Z,0.60
2022-09-17T16:23:57.949Z,0.57
2022-09-17T16:26:35.693Z,0.57
2022-09-17T16:29:17.405Z,0.60
2022-09-17T16:31:44.882Z,0.70
2022-09-17T16:34:11.613Z,0.60
2022-09-17T16:36:38.305Z,0.80
2022-09-17T16:39:05.241Z,0.90
2022-09-17T16:41:31.873Z,0.80
2022-09-17T16:43:58.539Z,0.60
2022-09-17T16:46:25.915Z,0.57
2022-09-17T16:48:52.773Z,0.57
2022-09-17T16:51:19.475Z,0.60
2022-09-17T16:53:46.342Z,0.50
2022-09-17T16:56:14.834Z,0.93
2022-09-17T16:58:41.726Z,1.00
2022-09-17T17:01:09.950Z,15.98
2022-09-17T17:03:36.800Z,1.83
2022-09-17T17:06:03.918Z,0.88
2022-09-17T17:08:34.334Z,0.63
2022-09-17T17:11:01.427Z,0.80
2022-09-17T17:13:28.116Z,0.90
2022-09-17T17:15:55.249Z,0.88
2022-09-17T17:18:22.361Z,1.00
2022-09-17T17:20:48.951Z,1.20
2022-09-17T17:23:16.089Z,1.10
2022-09-17T17:25:42.639Z,1.13
2022-09-17T17:28:10.071Z,1.13
2022-09-17T17:30:38.454Z,1.20
2022-09-17T17:33:05.519Z,1.48
2022-09-17T17:35:32.411Z,1.10
2022-09-17T17:37:59.217Z,1.10
2022-09-17T17:40:26.709Z,1.20
2022-09-17T17:42:53.596Z,1.10
2022-09-17T17:45:20.221Z,1.80
2022-09-17T17:47:46.979Z,1.30
2022-09-17T17:50:13.625Z,1.48
2022-09-17T17:52:43.356Z,1.15
2022-09-17T17:55:10.345Z,1.17
2022-09-17T17:57:36.939Z,1.25
2022-09-17T18:00:04.306Z,1.20
2022-09-17T18:02:31.006Z,1.55
2022-09-17T18:05:02.033Z,1.20
2022-09-17T18:07:30.645Z,1.23
2022-09-17T18:09:57.222Z,1.40
2022-09-17T18:12:26.831Z,1.80
2022-09-17T18:14:53.836Z,1.70
2022-09-17T18:17:20.557Z,1.20
2022-09-17T18:19:47.169Z,1.30
2022-09-17T18:22:14.205Z,1.20
2022-09-17T18:24:40.774Z,0.95
2022-09-17T18:27:07.532Z,1.35
2022-09-17T18:29:34.098Z,1.20
2022-09-17T18:32:00.821Z,1.10
2022-09-17T18:34:27.485Z,1.20
2022-09-17T18:36:54.089Z,0.95
2022-09-17T18:39:56.730Z,1.10
2022-09-17T18:42:08.433Z,1.02
2022-09-17T18:44:35.053Z,1.00
2022-09-17T18:47:01.885Z,1.17
2022-09-17T18:49:28.777Z,0.85
2022-09-17T18:51:55.417Z,0.88
2022-09-17T18:54:22.001Z,1.23
2022-09-17T18:56:48.640Z,0.88
2022-09-17T18:59:15.274Z,0.80
2022-09-17T19:01:42.052Z,1.00
2022-09-17T19:04:08.787Z,0.95
2022-09-17T19:06:35.669Z,0.93
2022-09-17T19:09:03.914Z,0.93
2022-09-17T19:11:30.735Z,1.30
2022-09-17T19:13:57.905Z,1.05
2022-09-17T19:16:24.692Z,1.17
2022-09-17T19:18:51.463Z,1.08
2022-09-17T19:21:20.532Z,0.85
2022-09-17T19:23:49.070Z,1.05
2022-09-17T19:26:19.281Z,1.30
2022-09-17T19:28:46.281Z,1.23
2022-09-17T19:31:15.735Z,1.20
2022-09-17T19:33:43.286Z,0.85
2022-09-17T19:36:15.511Z,1.30
2022-09-17T19:38:42.723Z,1.15
2022-09-17T19:41:15.096Z,1.30
2022-09-17T19:43:41.968Z,1.35
2022-09-17T19:46:14.199Z,1.13
2022-09-17T19:48:45.696Z,1.20
2022-09-17T19:51:12.936Z,1.02
2022-09-17T19:53:39.938Z,1.20
2022-09-17T19:56:15.148Z,0.98
2022-09-17T19:58:42.496Z,0.90
2022-09-17T20:01:09.873Z,1.00
2022-09-17T20:03:39.108Z,1.17
2022-09-17T20:06:08.104Z,0.90
2022-09-17T20:08:39.253Z,1.00
2022-09-17T20:11:10.439Z,1.15
2022-09-17T20:13:37.542Z,1.13
2022-09-17T20:16:16.002Z,1.15
2022-09-17T20:18:46.062Z,0.98
2022-09-17T20:21:24.776Z,0.77
2022-09-17T20:23:51.958Z,1.10
2022-09-17T20:26:18.545Z,0.80
2022-09-17T20:28:46.250Z,0.88
2022-09-17T20:31:14.666Z,0.73
2022-09-17T20:33:42.063Z,1.17
2022-09-17T20:36:12.912Z,0.70
2022-09-17T20:41:27.799Z,0.90
2022-09-17T20:43:54.897Z,1.02
2022-09-17T20:46:28.350Z,0.93
2022-09-17T20:48:57.827Z,0.93
2022-09-17T20:51:26.871Z,0.95
2022-09-17T20:53:53.915Z,1.00
2022-09-17T20:56:27.124Z,0.85
2022-09-17T20:59:12.892Z,0.93
2022-09-17T21:01:40.802Z,1.05
2022-09-17T21:04:08.745Z,1.13
2022-09-17T21:06:41.051Z,1.00
2022-09-17T21:09:11.844Z,0.90
2022-09-17T21:11:38.534Z,0.90
2022-09-17T21:14:05.626Z,0.88
2022-09-17T21:16:32.306Z,0.88
2022-09-17T21:19:02.362Z,1.00
2022-09-17T21:21:29.669Z,0.98
2022-09-17T21:24:01.256Z,1.20
2022-09-17T21:26:28.497Z,1.13
2022-09-17T21:28:56.459Z,0.90
2022-09-17T21:31:31.093Z,1.10
2022-09-17T21:34:01.264Z,1.00
2022-09-17T21:36:31.657Z,1.00
2022-09-17T21:39:03.959Z,1.10
2022-09-17T21:41:30.808Z,1.35
2022-09-17T21:43:57.825Z,1.15
2022-09-17T21:46:27.058Z,1.17
2022-09-17T21:49:04.293Z,1.42
2022-09-17T21:51:36.421Z,0.98
2022-09-17T21:54:08.765Z,1.05
2022-09-17T21:56:36.276Z,1.50
2022-09-17T21:59:05.317Z,1.38
2022-09-17T22:01:40.727Z,1.20
2022-09-17T22:04:13.059Z,1.08
2022-09-17T22:06:40.305Z,1.30
2022-09-17T22:09:12.203Z,1.20
2022-09-17T22:11:38.790Z,1.25
2022-09-17T22:14:13.978Z,1.00
2022-09-17T22:16:45.761Z,1.23
2022-09-17T22:19:15.765Z,1.27
2022-09-17T22:21:46.590Z,1.10
2022-09-17T22:24:14.972Z,1.67
2022-09-17T22:26:44.093Z,1.75
2022-09-17T22:29:13.415Z,1.80
2022-09-17T22:31:40.688Z,1.70
2022-09-17T22:34:09.609Z,1.65
2022-09-17T22:36:36.576Z,1.55
2022-09-17T22:39:04.930Z,1.50
2022-09-17T22:41:36.088Z,1.50
2022-09-17T22:44:07.621Z,1.70
2022-09-17T22:46:39.050Z,1.20
2022-09-17T22:49:07.199Z,1.40
2022-09-17T22:51:34.132Z,1.92
2022-09-17T22:54:00.956Z,1.40
2022-09-17T22:56:28.900Z,1.40
2022-09-17T22:58:59.115Z,1.90
2022-09-17T23:01:31.052Z,1.60
2022-09-17T23:03:58.987Z,1.70
2022-09-17T23:06:28.194Z,1.90
2022-09-17T23:08:55.471Z,1.95
2022-09-17T23:11:26.588Z,1.90
2022-09-17T23:13:54.875Z,2.15
2022-09-17T23:16:21.502Z,1.90
2022-09-17T23:18:48.185Z,1.88
2022-09-17T23:21:17.181Z,2.60
2022-09-17T23:23:46.173Z,1.90
2022-09-17T23:26:15.722Z,1.90
2022-09-17T23:28:42.795Z,2.00
2022-09-17T23:31:17.588Z,1.83
2022-09-17T23:33:45.048Z,2.22
2022-09-17T23:36:17.287Z,2.25
2022-09-17T23:38:45.549Z,2.10
2022-09-17T23:41:17.108Z,2.58
2022-09-17T23:43:45.706Z,1.80
2022-09-17T23:46:12.674Z,2.10
2022-09-17T23:48:39.801Z,2.33
2022-09-17T23:51:07.288Z,1.90
2022-09-17T23:53:35.735Z,2.00
2022-09-17T23:56:04.529Z,1.98
2022-09-17T23:58:34.357Z,2.45
